createdAt,value
2023-01-11T00:00:01.881Z,11.35
2023-01-11T00:05:13.134Z,11.45
2023-01-11T00:10:15.042Z,11.10
2023-01-11T00:15:16.684Z,10.94
2023-01-11T00:20:19.370Z,11.22
2023-01-11T00:25:21.004Z,11.01
2023-01-11T00:31:01.659Z,11.05
2023-01-11T00:36:03.147Z,11.51
2023-01-11T00:41:23.850Z,11.38
2023-01-11T00:46:44.023Z,11.51
2023-01-11T00:51:45.531Z,11.39
2023-01-11T00:56:46.988Z,11.72
2023-01-11T01:01:48.689Z,11.72
2023-01-11T01:06:50.323Z,11.55
2023-01-11T01:11:51.953Z,11.72
2023-01-11T01:17:02.182Z,11.55
2023-01-11T01:22:04.055Z,11.20
2023-01-11T01:27:05.518Z,11.36
2023-01-11T01:32:07.013Z,11.13
2023-01-11T01:37:10.011Z,11.29
2023-01-11T01:42:16.166Z,11.50
2023-01-11T01:47:19.923Z,11.10
2023-01-11T01:52:28.885Z,11.13
2023-01-11T01:57:34.761Z,11.18
2023-01-11T02:02:37.615Z,11.27
2023-01-11T02:07:43.266Z,11.31
2023-01-11T02:13:05.034Z,11.26
2023-01-11T02:18:11.535Z,11.36
2023-01-11T02:23:52.483Z,11.17
2023-01-11T02:29:03.163Z,11.49
2023-01-11T02:34:21.608Z,11.53
2023-01-11T02:39:35.896Z,11.39
2023-01-11T02:45:02.708Z,12.11
2023-01-11T02:50:32.359Z,11.37
2023-01-11T02:55:40.790Z,11.63
2023-01-11T03:00:46.446Z,11.30
2023-01-11T03:06:00.313Z,11.54
2023-01-11T03:11:12.739Z,11.52
2023-01-11T03:16:39.245Z,11.81
2023-01-11T03:22:09.355Z,11.68
2023-01-11T03:27:39.792Z,11.71
2023-01-11T03:32:47.341Z,11.59
2023-01-11T03:38:01.243Z,11.64
2023-01-11T03:48:57.177Z,11.99
2023-01-11T03:54:01.682Z,12.06
2023-01-11T03:59:06.516Z,11.88
2023-01-11T04:04:08.030Z,11.97
2023-01-11T04:09:09.609Z,12.00
2023-01-11T04:14:11.198Z,11.78
2023-01-11T04:19:12.618Z,12.01
2023-01-11T04:24:14.174Z,12.09
2023-01-11T04:29:15.616Z,12.07
2023-01-11T04:34:17.276Z,12.26
2023-01-11T04:39:18.724Z,12.05
2023-01-11T04:44:20.603Z,12.20
2023-01-11T04:49:22.145Z,12.25
2023-01-11T04:54:23.708Z,12.13
2023-01-11T04:59:25.294Z,12.31
2023-01-11T05:04:26.767Z,12.50
2023-01-11T05:09:28.453Z,12.28
2023-01-11T05:14:30.161Z,12.21
2023-01-11T05:19:31.711Z,12.19
2023-01-11T05:24:35.488Z,12.40
2023-01-11T05:29:36.989Z,12.27
2023-01-11T05:34:38.672Z,12.14
2023-01-11T05:39:40.170Z,12.40
2023-01-11T05:45:00.285Z,12.62
2023-01-11T05:50:01.826Z,12.68
2023-01-11T05:55:03.627Z,12.52
2023-01-11T06:00:05.629Z,12.78
2023-01-11T06:05:08.608Z,13.01
2023-01-11T06:10:10.843Z,12.78
2023-01-11T06:15:12.379Z,12.76
2023-01-11T06:20:15.914Z,12.96
2023-01-11T06:25:17.411Z,12.98
2023-01-11T06:30:20.319Z,12.91
2023-01-11T06:35:22.008Z,13.02
2023-01-11T06:40:23.630Z,12.74
2023-01-11T06:45:25.210Z,13.18
2023-01-11T06:50:27.244Z,13.24
2023-01-11T06:55:29.751Z,12.87
2023-01-11T07:00:31.383Z,12.96
2023-01-11T07:05:34.868Z,12.66
2023-01-11T07:10:36.544Z,12.75
2023-01-11T07:15:38.231Z,12.91
2023-01-11T07:20:40.703Z,12.75
2023-01-11T07:25:42.257Z,12.75
2023-01-11T07:30:59.984Z,12.60
2023-01-11T07:36:05.378Z,12.72
2023-01-11T07:41:26.939Z,12.53
2023-01-11T07:46:28.722Z,12.44
2023-01-11T07:51:30.313Z,12.36
2023-01-11T07:56:32.048Z,12.30
2023-01-11T08:01:33.576Z,12.24
2023-01-11T08:06:35.241Z,12.29
2023-01-11T08:11:56.792Z,12.30
2023-01-11T08:16:58.406Z,12.28
2023-01-11T08:21:59.910Z,12.25
2023-01-11T08:27:04.815Z,12.15
2023-01-11T08:32:06.677Z,12.19
2023-01-11T08:37:08.883Z,12.17
2023-01-11T08:42:21.542Z,12.20
2023-01-11T08:47:23.217Z,12.21
2023-01-11T08:52:25.127Z,12.13
2023-01-11T08:57:26.687Z,12.30
2023-01-11T09:02:28.274Z,12.09
2023-01-11T09:07:29.869Z,11.97
2023-01-11T09:12:32.720Z,12.02
2023-01-11T09:17:34.462Z,12.14
2023-01-11T09:22:36.551Z,12.04
2023-01-11T09:27:42.645Z,12.16
2023-01-11T09:32:45.561Z,12.05
2023-01-11T09:37:52.274Z,11.94
2023-01-11T09:42:57.539Z,11.66
2023-01-11T09:48:28.778Z,11.66
2023-01-11T09:53:36.403Z,11.97
2023-01-11T09:58:59.748Z,11.73
2023-01-11T10:04:22.389Z,11.69
2023-01-11T10:18:22.461Z,11.55
2023-01-11T10:20:39.978Z,11.63
2023-01-11T10:25:51.494Z,11.74
2023-01-11T10:30:59.140Z,11.43
2023-01-11T10:36:26.720Z,11.38
2023-01-11T10:42:07.773Z,11.63
2023-01-11T10:47:24.259Z,11.58
2023-01-11T10:52:41.112Z,12.06
2023-01-11T10:58:13.312Z,12.12
2023-01-11T11:03:29.989Z,12.40
2023-01-11T11:08:52.997Z,12.48
2023-01-11T11:14:04.570Z,12.63
2023-01-11T11:19:12.287Z,12.56
2023-01-11T11:24:27.846Z,12.26
2023-01-11T11:29:30.732Z,11.97
2023-01-11T11:34:33.035Z,11.95
2023-01-11T11:39:34.941Z,12.06
2023-01-11T11:44:36.527Z,12.13
2023-01-11T11:49:39.996Z,12.13
2023-01-11T11:54:57.089Z,13.12
2023-01-11T12:00:07.287Z,12.67
2023-01-11T12:05:10.803Z,12.67
2023-01-11T12:10:17.071Z,13.13
2023-01-11T12:15:31.065Z,12.01
2023-01-11T12:20:39.090Z,12.37
2023-01-11T12:26:19.543Z,12.18
2023-01-11T12:31:52.867Z,11.91
2023-01-11T12:37:06.009Z,12.91
2023-01-11T12:42:42.635Z,13.16
2023-01-11T12:48:12.825Z,12.43
2023-01-11T12:53:48.240Z,11.96
2023-01-11T12:59:18.036Z,11.72
2023-01-11T13:04:41.596Z,11.83
2023-01-11T13:10:00.891Z,11.97
2023-01-11T13:15:20.372Z,11.78
2023-01-11T13:20:25.026Z,11.95
2023-01-11T13:25:32.078Z,12.28
2023-01-11T13:30:34.325Z,11.56
2023-01-11T13:35:54.325Z,11.75
2023-01-11T13:41:01.865Z,12.07
2023-01-11T13:46:18.423Z,12.29
2023-01-11T13:51:28.890Z,12.16
2023-01-11T13:56:34.568Z,12.01
2023-01-11T14:01:57.557Z,12.25
2023-01-11T14:07:17.145Z,11.77
2023-01-11T14:12:45.980Z,11.28
2023-01-11T14:18:25.182Z,11.31
2023-01-11T14:23:38.687Z,11.45
2023-01-11T14:28:40.269Z,11.86
2023-01-11T14:34:04.770Z,11.69
2023-01-11T14:39:17.492Z,11.35
2023-01-11T14:44:56.036Z,11.61
2023-01-11T14:50:14.332Z,11.57
2023-01-11T14:55:23.895Z,11.67
2023-01-11T15:00:25.506Z,11.47
2023-01-11T15:05:30.625Z,11.44
2023-01-11T15:10:35.019Z,11.23
2023-01-11T15:15:55.226Z,11.27
2023-01-11T15:21:03.051Z,11.01
2023-01-11T15:26:09.472Z,11.02
2023-01-11T15:31:48.262Z,11.03
2023-01-11T15:37:06.612Z,10.85
2023-01-11T15:42:17.046Z,10.81
2023-01-11T15:47:36.856Z,10.90
2023-01-11T15:53:06.449Z,11.11
2023-01-11T15:58:35.915Z,10.74
2023-01-11T16:04:19.150Z,10.47
2023-01-11T16:09:31.934Z,10.58
2023-01-11T16:15:08.339Z,10.32
2023-01-11T16:20:28.937Z,10.40
2023-01-11T16:25:34.217Z,10.43
2023-01-11T16:30:35.758Z,10.47
2023-01-11T16:35:37.262Z,10.31
2023-01-11T16:40:42.667Z,10.67
2023-01-11T16:45:47.402Z,10.70
2023-01-11T16:51:01.057Z,10.81
2023-01-11T16:56:20.113Z,10.70
2023-01-11T17:01:21.830Z,10.34
2023-01-11T17:06:24.996Z,10.66
2023-01-11T17:11:38.473Z,10.27
2023-01-11T17:16:47.810Z,10.24
2023-01-11T17:21:56.831Z,10.47
2023-01-11T17:27:02.041Z,10.63
2023-01-11T17:32:07.509Z,10.55
2023-01-11T17:37:14.796Z,10.50
2023-01-11T17:42:35.969Z,10.76
2023-01-11T17:47:40.079Z,10.57
2023-01-11T17:52:54.037Z,10.55
2023-01-11T17:58:19.802Z,10.42
2023-01-11T18:03:21.567Z,10.48
2023-01-11T18:08:23.267Z,10.75
2023-01-11T18:13:33.964Z,10.73
2023-01-11T18:18:47.269Z,10.60
2023-01-11T18:23:48.797Z,10.60
2023-01-11T18:28:51.260Z,10.50
2023-01-11T18:33:52.842Z,10.54
2023-01-11T18:38:54.362Z,10.38
2023-01-11T18:43:56.127Z,10.46
2023-01-11T18:49:00.112Z,10.31
2023-01-11T18:54:01.974Z,10.40
2023-01-11T18:59:03.500Z,10.41
2023-01-11T19:04:05.216Z,10.45
2023-01-11T19:09:06.740Z,10.51
2023-01-11T19:14:10.422Z,10.58
2023-01-11T19:19:12.100Z,10.59
2023-01-11T19:24:13.700Z,10.44
2023-01-11T19:29:17.803Z,10.49
2023-01-11T19:34:19.662Z,10.21
2023-01-11T19:39:21.243Z,10.05
2023-01-11T19:44:25.228Z,10.15
2023-01-11T19:49:27.467Z,9.81
2023-01-11T19:54:29.070Z,9.96
2023-01-11T19:59:30.644Z,9.61
2023-01-11T20:04:32.824Z,9.70
2023-01-11T20:09:37.571Z,9.62
2023-01-11T20:14:40.754Z,9.88
2023-01-11T20:19:43.300Z,9.34
2023-01-11T20:24:44.889Z,9.95
2023-01-11T20:29:47.929Z,9.77
2023-01-11T20:34:49.469Z,9.16
2023-01-11T20:39:51.044Z,9.08
2023-01-11T20:44:52.757Z,9.19
2023-01-11T20:49:54.271Z,9.04
2023-01-11T20:54:58.410Z,9.33
2023-01-11T20:59:59.901Z,9.13
2023-01-11T21:05:04.475Z,9.10
2023-01-11T21:10:06.664Z,9.10
2023-01-11T21:15:10.981Z,9.08
2023-01-11T21:20:12.765Z,9.26
2023-01-11T21:25:14.295Z,9.38
2023-01-11T21:30:17.515Z,9.21
2023-01-11T21:35:19.122Z,9.11
2023-01-11T21:40:20.685Z,9.25
2023-01-11T21:45:23.210Z,9.41
2023-01-11T21:50:24.716Z,9.18
2023-01-11T21:55:26.496Z,9.36
2023-01-11T22:00:29.684Z,9.45
2023-01-11T22:05:31.707Z,9.61
2023-01-11T22:10:33.419Z,9.49
2023-01-11T22:15:37.289Z,9.69
2023-01-11T22:20:40.771Z,9.67
2023-01-11T22:25:42.311Z,9.75
2023-01-11T22:30:43.795Z,9.53
2023-01-11T22:35:54.625Z,9.66
2023-01-11T22:40:59.648Z,9.68
2023-01-11T22:46:01.694Z,9.69
2023-01-11T22:51:06.250Z,9.78
2023-01-11T22:56:09.787Z,9.72
2023-01-11T23:01:16.458Z,9.93
2023-01-11T23:06:21.019Z,10.08
2023-01-11T23:11:45.831Z,10.06
2023-01-11T23:16:48.653Z,10.03
2023-01-11T23:21:50.177Z,10.09
2023-01-11T23:26:51.977Z,10.12
2023-01-11T23:31:53.782Z,9.99
2023-01-11T23:36:56.068Z,10.07
2023-01-11T23:42:28.485Z,9.79
2023-01-11T23:47:31.487Z,9.76
2023-01-11T23:52:33.135Z,9.69
2023-01-11T23:57:34.665Z,9.75
